Create Tblcommutelog Verified Points Advance Search
| # | Trip ID | Id Commuter | Trip Date | Trip Num | Current Lat | Current Lng | Delta Distance | Current Time | Activity | Activity Confidence | Current Speed | |
|---|---|---|---|---|---|---|---|---|---|---|---|---|
| 73561 | 250421_781350_16450333_0609 | 781350 | (not set) | (not set) | 39.053497790981 | -76.736906790769 | 2.6162 | 2025-04-21 10:11:25.497 | in_vehicle | 100 | 17.881570359509 | |
| 73562 | 250421_781350_16450333_0609 | 781350 | (not set) | (not set) | 39.04929577181 | -76.738178330265 | 2.9141 | 2025-04-21 10:11:37.552 | in_vehicle | 100 | 17.979918996486 | |
| 73563 | 250421_784160_16504592_0446 | 784160 | (not set) | (not set) | 38.859280412442 | -77.048271189602 | 56.0119 | 2025-04-21 10:11:49.474 | in_vehicle | 100 | 1.8239201766699 | |
| 73564 | 250421_781350_16450333_0609 | 781350 | (not set) | (not set) | 39.045277046609 | -76.740304524564 | 3.214 | 2025-04-21 10:11:50.03 | in_vehicle | 100 | 17.921803892818 | |
| 73565 | 250421_781350_16450333_0609 | 781350 | (not set) | (not set) | 39.041826738289 | -76.743630870339 | 3.5117 | 2025-04-21 10:12:03.916 | in_vehicle | 100 | 17.783221722532 | |
| 73566 | 250421_784160_16504592_0446 | 784160 | (not set) | (not set) | 38.860259944577 | -77.048172412515 | 56.0797 | 2025-04-21 10:12:05.363 | in_vehicle | 100 | 4.1038203975073 | |
| 73567 | 250421_781350_16450333_0609 | 781350 | (not set) | (not set) | 39.038590081052 | -76.747333363793 | 3.8109 | 2025-04-21 10:12:13.363 | in_vehicle | 100 | 18.105089989003 | |
| 73568 | 250421_784160_16504592_0446 | 784160 | (not set) | (not set) | 38.861713491045 | -77.048196148857 | 56.1799 | 2025-04-21 10:12:19.261 | in_vehicle | 100 | 5.6326946632453 | |
| 73569 | 250421_781350_16450333_0609 | 781350 | (not set) | (not set) | 39.035173601539 | -76.750904694803 | 4.115 | 2025-04-21 10:12:25.353 | in_vehicle | 100 | 18.051445277924 | |
| 73570 | 250421_784160_16504592_0446 | 784160 | (not set) | (not set) | 38.863563495969 | -77.047609556987 | 56.3114 | 2025-04-21 10:12:34.257 | in_vehicle | 100 | 6.7994671292033 | |
| 73571 | 250421_781350_16450333_0609 | 781350 | (not set) | (not set) | 39.03169646402 | -76.754009180955 | 4.4073 | 2025-04-21 10:12:37.363 | in_vehicle | 100 | 17.139485189589 | |
| 73572 | 250421_784160_16504592_0446 | 784160 | (not set) | (not set) | 38.865207083542 | -77.046610762644 | 56.4369 | 2025-04-21 10:12:47.342 | in_vehicle | 100 | 7.3582662029379 | |
| 73573 | 250421_781350_16450333_0609 | 781350 | (not set) | (not set) | 39.027990716706 | -76.756712060123 | 4.7014 | 2025-04-21 10:12:50.304 | in_vehicle | 100 | 15.632962886801 | |
| 73574 | 250421_784160_16504592_0446 | 784160 | (not set) | (not set) | 38.866818300956 | -77.045361249952 | 56.5669 | 2025-04-21 10:12:59.268 | in_vehicle | 100 | 7.9304764544422 | |
| 73575 | 250421_781350_16450333_0609 | 781350 | (not set) | (not set) | 39.02476745407 | -76.759067777747 | 4.9574 | 2025-04-21 10:13:03.324 | in_vehicle | 100 | 13.09825028834 | |
| 73576 | 250421_784160_16504592_0446 | 784160 | (not set) | (not set) | 38.868703848484 | -77.043742129627 | 56.7235 | 2025-04-21 10:13:15.047 | in_vehicle | 100 | 8.1539960839361 | |
| 73577 | 250421_781350_16450333_0609 | 781350 | (not set) | (not set) | 39.021951482271 | -76.761161472208 | 5.1819 | 2025-04-21 10:13:17.301 | in_vehicle | 100 | 10.156731964201 | |
| 73578 | 250421_784160_16504592_0446 | 784160 | (not set) | (not set) | 38.870624287744 | -77.0420589865 | 56.8842 | 2025-04-21 10:13:28.112 | in_vehicle | 100 | 8.1182329432171 | |
| 73579 | 250421_781350_16450333_0609 | 781350 | (not set) | (not set) | 39.019671398238 | -76.763022262268 | 5.3683 | 2025-04-21 10:13:35.416 | in_vehicle | 100 | 5.6729281965542 | |
| 73580 | 250421_784160_16504592_0446 | 784160 | (not set) | (not set) | 38.872504871456 | -77.04037620037 | 57.0424 | 2025-04-21 10:13:42.771 | in_vehicle | 100 | 7.9975323432904 |